createdAt,value
2023-02-02T00:02:01.328Z,6.82
2023-02-02T00:04:31.474Z,6.99
2023-02-02T00:06:59.708Z,7.03
2023-02-02T00:09:29.091Z,7.04
2023-02-02T00:11:57.573Z,6.90
2023-02-02T00:14:25.266Z,6.98
2023-02-02T00:16:55.161Z,7.02
2023-02-02T00:19:26.275Z,7.06
2023-02-02T00:21:54.624Z,7.03
2023-02-02T00:24:23.055Z,7.16
2023-02-02T00:26:52.733Z,7.11
2023-02-02T00:29:24.007Z,7.17
2023-02-02T00:31:52.411Z,7.10
2023-02-02T00:34:22.732Z,7.11
2023-02-02T00:36:51.243Z,7.26
2023-02-02T00:39:21.258Z,7.18
2023-02-02T00:41:50.078Z,7.19
2023-02-02T00:44:35.763Z,7.26
2023-02-02T00:47:03.694Z,7.04
2023-02-02T00:49:32.858Z,7.07
2023-02-02T00:52:00.911Z,6.84
2023-02-02T00:54:28.589Z,7.00
2023-02-02T00:56:56.278Z,7.01
2023-02-02T00:59:23.941Z,7.01
2023-02-02T01:01:51.600Z,7.03
2023-02-02T01:04:19.268Z,6.79
2023-02-02T01:06:48.838Z,6.74
2023-02-02T01:09:16.514Z,6.72
2023-02-02T01:11:44.188Z,6.85
2023-02-02T01:14:12.093Z,6.83
2023-02-02T01:16:40.043Z,6.89
2023-02-02T01:19:07.980Z,6.89
2023-02-02T01:21:35.786Z,6.82
2023-02-02T01:24:04.986Z,6.56
2023-02-02T01:26:32.651Z,6.52
2023-02-02T01:29:00.276Z,6.43
2023-02-02T01:31:27.938Z,6.44
2023-02-02T01:33:56.231Z,6.42
2023-02-02T01:36:25.486Z,6.37
2023-02-02T01:38:53.158Z,6.28
2023-02-02T01:41:23.828Z,6.27
2023-02-02T01:43:55.228Z,6.09
2023-02-02T01:46:25.312Z,6.19
2023-02-02T01:49:00.598Z,6.26
2023-02-02T01:51:36.084Z,6.16
2023-02-02T01:54:07.027Z,6.30
2023-02-02T01:56:40.642Z,6.25
2023-02-02T01:59:09.240Z,6.28
2023-02-02T02:01:37.003Z,6.28
2023-02-02T02:04:04.927Z,6.23
2023-02-02T02:06:32.897Z,6.25
2023-02-02T02:09:04.727Z,6.29
2023-02-02T02:11:33.725Z,6.35
2023-02-02T02:14:24.204Z,6.22
2023-02-02T02:17:02.063Z,6.28
2023-02-02T02:20:25.325Z,6.29
2023-02-02T02:23:30.924Z,6.39
2023-02-02T02:26:37.667Z,6.48
2023-02-02T02:29:22.810Z,6.55
2023-02-02T02:32:19.478Z,6.46
2023-02-02T02:34:56.131Z,6.44
2023-02-02T02:37:32.573Z,6.37
2023-02-02T02:40:06.750Z,6.44
2023-02-02T02:42:38.495Z,6.45
2023-02-02T02:45:08.711Z,6.51
2023-02-02T02:47:38.917Z,6.59
2023-02-02T02:50:07.251Z,6.55
2023-02-02T02:52:37.307Z,6.58
2023-02-02T02:55:07.814Z,6.49
2023-02-02T02:57:45.191Z,6.58
2023-02-02T03:00:26.808Z,6.59
2023-02-02T03:03:01.230Z,6.32
2023-02-02T03:05:35.052Z,6.46
2023-02-02T03:08:10.931Z,6.44
2023-02-02T03:10:41.293Z,6.37
2023-02-02T03:13:11.330Z,6.23
2023-02-02T03:15:44.707Z,6.23
2023-02-02T03:18:16.380Z,6.23
2023-02-02T03:20:46.105Z,6.25
2023-02-02T03:23:14.072Z,6.32
2023-02-02T03:25:42.300Z,6.37
2023-02-02T03:28:10.154Z,6.31
2023-02-02T03:30:39.307Z,6.33
2023-02-02T03:33:07.664Z,6.41
2023-02-02T03:35:36.743Z,6.38
2023-02-02T03:38:04.733Z,6.37
2023-02-02T03:40:32.359Z,6.31
2023-02-02T03:43:00.056Z,6.34
2023-02-02T03:45:28.576Z,6.40
2023-02-02T03:47:56.212Z,6.37
2023-02-02T03:50:25.142Z,6.38
2023-02-02T03:52:55.069Z,6.41
2023-02-02T03:55:23.003Z,6.38
2023-02-02T03:57:50.821Z,6.35
2023-02-02T04:00:19.120Z,6.36
2023-02-02T04:02:46.944Z,6.40
2023-02-02T04:05:14.869Z,6.37
2023-02-02T04:07:42.564Z,6.28
2023-02-02T04:10:12.535Z,6.21
2023-02-02T04:12:40.277Z,6.24
2023-02-02T04:15:09.288Z,6.22
2023-02-02T04:17:37.128Z,6.28
2023-02-02T04:20:06.323Z,6.35
2023-02-02T04:22:34.143Z,6.34
2023-02-02T04:25:01.735Z,6.42
2023-02-02T04:27:32.557Z,6.29
2023-02-02T04:30:00.269Z,6.32
2023-02-02T04:32:27.926Z,6.37
2023-02-02T04:34:55.532Z,6.46
2023-02-02T04:37:23.194Z,6.44
2023-02-02T04:39:50.885Z,6.25
2023-02-02T04:42:18.529Z,6.44
2023-02-02T04:44:47.588Z,6.45
2023-02-02T04:47:15.256Z,6.49
2023-02-02T04:49:42.910Z,6.48
2023-02-02T04:52:12.068Z,6.54
2023-02-02T04:54:39.753Z,6.50
2023-02-02T04:57:07.405Z,6.54
2023-02-02T04:59:35.070Z,6.53
2023-02-02T05:02:04.776Z,6.54
2023-02-02T05:04:32.622Z,6.56
2023-02-02T05:07:00.270Z,6.51
2023-02-02T05:09:28.114Z,6.60
2023-02-02T05:11:55.817Z,6.70
2023-02-02T05:14:23.664Z,6.69
2023-02-02T05:16:51.356Z,6.61
2023-02-02T05:19:20.422Z,6.70
2023-02-02T05:21:51.150Z,6.64
2023-02-02T05:24:18.885Z,6.68
2023-02-02T05:26:47.001Z,6.81
2023-02-02T05:29:14.627Z,6.79
2023-02-02T05:31:42.401Z,6.72
2023-02-02T05:34:11.409Z,6.74
2023-02-02T05:36:40.456Z,6.70
2023-02-02T05:39:08.106Z,6.80
2023-02-02T05:41:35.777Z,6.71
2023-02-02T05:44:04.006Z,6.83
2023-02-02T05:46:31.970Z,6.87
2023-02-02T05:48:59.647Z,6.83
2023-02-02T05:51:30.568Z,6.96
2023-02-02T05:54:01.027Z,6.96
2023-02-02T05:56:28.969Z,6.90
2023-02-02T05:58:56.603Z,6.91
2023-02-02T06:01:24.375Z,6.84
2023-02-02T06:03:52.214Z,6.85
2023-02-02T06:06:19.925Z,6.84
2023-02-02T06:08:47.593Z,6.98
2023-02-02T06:11:18.378Z,6.95
2023-02-02T06:13:46.553Z,6.95
2023-02-02T06:16:14.594Z,6.95
2023-02-02T06:18:42.496Z,6.98
2023-02-02T06:21:11.046Z,6.77
2023-02-02T06:23:43.397Z,6.90
2023-02-02T06:26:11.002Z,7.03
2023-02-02T06:28:39.979Z,6.97
2023-02-02T06:31:08.974Z,6.88
2023-02-02T06:33:36.917Z,6.87
2023-02-02T06:36:07.310Z,6.94
2023-02-02T06:38:35.311Z,6.92
2023-02-02T06:41:03.745Z,6.98
2023-02-02T06:43:31.475Z,6.97
2023-02-02T06:46:00.598Z,7.06
2023-02-02T06:48:28.586Z,7.15
2023-02-02T06:50:59.242Z,7.02
2023-02-02T06:53:27.120Z,7.11
2023-02-02T06:55:55.503Z,7.09
2023-02-02T06:58:23.748Z,7.01
2023-02-02T07:00:51.678Z,7.06
2023-02-02T07:03:21.983Z,6.98
2023-02-02T07:05:50.158Z,7.06
2023-02-02T07:08:18.134Z,7.07
2023-02-02T07:11:12.943Z,7.06
2023-02-02T07:13:33.568Z,7.03
2023-02-02T07:16:01.291Z,7.05
2023-02-02T07:18:30.443Z,7.16
2023-02-02T07:21:00.106Z,7.20
2023-02-02T07:23:27.802Z,7.21
2023-02-02T07:26:02.874Z,7.16
2023-02-02T07:28:30.866Z,7.12
2023-02-02T07:30:58.703Z,7.18
2023-02-02T07:33:26.377Z,7.18
2023-02-02T07:35:55.410Z,7.02
2023-02-02T07:38:23.029Z,7.21
2023-02-02T07:40:50.693Z,7.20
2023-02-02T07:43:19.302Z,7.22
2023-02-02T07:45:46.895Z,7.23
2023-02-02T07:48:14.573Z,7.11
2023-02-02T07:50:42.217Z,7.21
2023-02-02T07:53:11.253Z,7.14
2023-02-02T07:55:38.910Z,7.24
2023-02-02T07:58:07.778Z,7.11
2023-02-02T08:00:35.485Z,7.26
2023-02-02T08:03:03.283Z,7.25
2023-02-02T08:05:32.010Z,7.25
2023-02-02T08:07:59.636Z,7.33
2023-02-02T08:10:28.648Z,7.24
2023-02-02T08:12:56.354Z,7.36
2023-02-02T08:15:24.135Z,7.36
2023-02-02T08:17:52.074Z,7.29
2023-02-02T08:20:20.546Z,7.45
2023-02-02T08:22:48.192Z,7.23
2023-02-02T08:25:15.892Z,7.32
2023-02-02T08:27:44.920Z,7.40
2023-02-02T08:30:13.644Z,7.54
2023-02-02T08:32:41.354Z,7.38
2023-02-02T08:35:09.403Z,7.42
2023-02-02T08:37:36.979Z,7.38
2023-02-02T08:40:05.266Z,7.62
2023-02-02T08:42:32.909Z,7.52
2023-02-02T08:46:07.791Z,7.66
2023-02-02T08:47:56.081Z,7.74
2023-02-02T08:50:33.640Z,7.63
2023-02-02T08:53:01.261Z,7.84
2023-02-02T08:55:28.967Z,7.84
2023-02-02T08:57:57.160Z,7.78
2023-02-02T09:00:26.500Z,7.69
2023-02-02T09:02:54.138Z,7.69
2023-02-02T09:05:21.865Z,7.77
2023-02-02T09:07:49.485Z,7.87
2023-02-02T09:10:17.750Z,7.74
2023-02-02T09:12:45.435Z,7.88
2023-02-02T09:15:13.546Z,7.94
2023-02-02T09:17:42.530Z,7.97
2023-02-02T09:20:11.290Z,7.76
2023-02-02T09:22:38.954Z,7.82
2023-02-02T09:25:07.289Z,7.90
2023-02-02T09:27:38.401Z,7.95
2023-02-02T09:30:06.715Z,8.08
2023-02-02T09:32:34.392Z,8.04
2023-02-02T09:35:03.526Z,8.08
2023-02-02T09:37:31.397Z,8.13
2023-02-02T09:39:59.075Z,8.11
2023-02-02T09:42:56.302Z,8.04
2023-02-02T09:45:29.247Z,8.09
2023-02-02T09:48:05.213Z,8.10
2023-02-02T09:50:44.476Z,8.05
2023-02-02T09:53:19.230Z,7.92
2023-02-02T09:55:49.557Z,8.11
2023-02-02T09:58:21.416Z,8.10
2023-02-02T10:00:56.221Z,8.19
2023-02-02T10:03:30.075Z,8.13
2023-02-02T10:06:08.677Z,8.13
2023-02-02T10:08:42.351Z,8.16
2023-02-02T10:11:30.640Z,8.13
2023-02-02T10:14:03.678Z,8.02
2023-02-02T10:16:34.415Z,8.17
2023-02-02T10:19:05.371Z,8.03
2023-02-02T10:21:40.853Z,8.09
2023-02-02T10:24:18.699Z,8.10
2023-02-02T10:26:49.138Z,8.12
2023-02-02T10:29:19.452Z,8.16
2023-02-02T10:32:02.798Z,8.18
2023-02-02T10:34:38.458Z,8.13
2023-02-02T10:37:20.750Z,8.16
2023-02-02T10:40:03.563Z,8.15
2023-02-02T10:42:42.649Z,8.18
2023-02-02T10:45:15.603Z,8.12
2023-02-02T10:47:43.548Z,8.15
2023-02-02T10:50:19.049Z,8.04
2023-02-02T10:52:51.179Z,8.18
2023-02-02T10:55:27.229Z,8.19
2023-02-02T10:58:05.769Z,8.21
2023-02-02T11:00:39.072Z,8.30
2023-02-02T11:03:09.571Z,8.25
2023-02-02T11:05:55.057Z,8.23
2023-02-02T11:08:33.304Z,8.26
2023-02-02T11:11:12.140Z,8.30
2023-02-02T11:13:43.753Z,8.39
2023-02-02T11:16:21.186Z,8.13
2023-02-02T11:18:49.613Z,8.33
2023-02-02T11:21:20.834Z,8.32
2023-02-02T11:23:55.714Z,8.33
2023-02-02T11:26:24.520Z,8.52
2023-02-02T11:28:55.253Z,8.54
2023-02-02T11:31:33.736Z,8.47
2023-02-02T11:34:20.468Z,8.49
2023-02-02T11:37:12.604Z,8.69
2023-02-02T11:39:42.408Z,8.85
2023-02-02T11:42:16.073Z,8.60
2023-02-02T11:44:47.578Z,8.78
2023-02-02T11:47:22.216Z,8.82
2023-02-02T11:49:51.607Z,8.83
2023-02-02T11:52:23.123Z,8.86
2023-02-02T11:54:53.940Z,8.69
2023-02-02T11:57:23.565Z,8.68
2023-02-02T11:59:53.858Z,8.57
2023-02-02T12:02:31.001Z,8.83
2023-02-02T12:05:29.673Z,9.22
2023-02-02T12:07:57.330Z,9.30
2023-02-02T12:10:32.456Z,9.27
2023-02-02T12:13:08.218Z,9.27
2023-02-02T12:15:46.366Z,8.94
2023-02-02T12:18:32.593Z,8.99
2023-02-02T12:21:05.519Z,8.87
2023-02-02T12:23:52.309Z,8.87
2023-02-02T12:26:24.974Z,8.97
2023-02-02T12:29:25.804Z,8.88
2023-02-02T12:32:14.919Z,8.88
2023-02-02T12:34:54.376Z,8.73
2023-02-02T12:37:35.568Z,8.90
2023-02-02T12:40:15.527Z,8.89
2023-02-02T12:42:56.869Z,8.94
2023-02-02T12:45:43.951Z,8.93
2023-02-02T12:48:25.795Z,8.78
2023-02-02T12:51:07.139Z,8.63
2023-02-02T12:54:33.484Z,8.71
2023-02-02T12:56:46.075Z,8.57
2023-02-02T12:59:24.015Z,8.87
2023-02-02T13:02:04.471Z,8.94
2023-02-02T13:04:54.534Z,8.92
2023-02-02T13:07:33.095Z,8.93
2023-02-02T13:10:09.873Z,8.93
2023-02-02T13:12:43.282Z,8.89
2023-02-02T13:15:15.972Z,8.79
2023-02-02T13:17:47.852Z,8.76
2023-02-02T13:20:22.610Z,8.69
2023-02-02T13:22:54.110Z,8.72
2023-02-02T13:25:28.129Z,8.85
2023-02-02T13:27:59.122Z,8.92
2023-02-02T13:30:34.043Z,8.83
2023-02-02T13:33:06.309Z,8.91
2023-02-02T13:35:41.234Z,8.87
2023-02-02T13:38:18.962Z,8.93
2023-02-02T13:40:47.057Z,8.89
2023-02-02T13:43:26.399Z,8.90
2023-02-02T13:46:07.538Z,8.92
2023-02-02T13:48:43.423Z,9.06
2023-02-02T13:51:32.776Z,8.98
2023-02-02T13:54:28.597Z,8.95
2023-02-02T13:57:05.940Z,8.86
2023-02-02T13:59:51.979Z,9.00
2023-02-02T14:02:27.809Z,9.09
2023-02-02T14:04:58.646Z,9.01
2023-02-02T14:07:32.170Z,9.11
2023-02-02T14:10:00.529Z,9.10
2023-02-02T14:12:31.519Z,9.24
2023-02-02T14:14:59.089Z,9.18
2023-02-02T14:17:53.324Z,9.14
2023-02-02T14:20:51.256Z,9.29
2023-02-02T14:23:51.572Z,9.18
2023-02-02T14:26:41.625Z,9.08
2023-02-02T14:29:36.620Z,9.10
2023-02-02T14:32:25.040Z,9.06
2023-02-02T14:34:55.251Z,9.03
2023-02-02T14:37:42.640Z,9.06
2023-02-02T14:40:27.760Z,9.10
2023-02-02T14:43:24.239Z,9.14
2023-02-02T14:46:24.736Z,9.08
2023-02-02T14:49:10.219Z,9.07
2023-02-02T14:51:49.537Z,9.07
2023-02-02T14:54:24.232Z,9.10
2023-02-02T14:56:56.077Z,9.13
2023-02-02T14:59:27.563Z,9.22
2023-02-02T15:02:01.995Z,9.09
2023-02-02T15:04:31.227Z,9.13
2023-02-02T15:07:51.191Z,9.05
2023-02-02T15:10:53.789Z,8.99
2023-02-02T15:13:22.941Z,9.01
2023-02-02T15:15:59.201Z,9.11
2023-02-02T15:18:33.140Z,8.89
2023-02-02T15:21:05.983Z,9.12
2023-02-02T15:23:41.621Z,9.13
2023-02-02T15:26:16.221Z,8.97
2023-02-02T15:28:49.736Z,8.93
2023-02-02T15:31:24.169Z,8.92
2023-02-02T15:33:54.927Z,8.90
2023-02-02T15:36:26.165Z,8.88
2023-02-02T15:38:59.336Z,8.88
2023-02-02T15:41:33.096Z,8.84
2023-02-02T15:44:00.847Z,8.89
2023-02-02T15:46:32.336Z,8.93
2023-02-02T15:49:32.785Z,8.89
2023-02-02T15:52:05.126Z,8.86
2023-02-02T15:54:37.937Z,8.85
2023-02-02T15:57:24.042Z,8.69
2023-02-02T15:59:51.763Z,8.87
2023-02-02T16:02:24.148Z,8.88
2023-02-02T16:04:51.807Z,8.85
2023-02-02T16:07:24.055Z,8.77
2023-02-02T16:09:53.766Z,8.83
2023-02-02T16:12:23.549Z,8.85
2023-02-02T16:14:53.494Z,8.86
2023-02-02T16:17:23.085Z,8.64
2023-02-02T16:19:52.241Z,8.67
2023-02-02T16:22:25.328Z,8.77
2023-02-02T16:24:58.014Z,8.82
2023-02-02T16:27:28.055Z,8.77
2023-02-02T16:29:59.342Z,8.64
2023-02-02T16:32:29.239Z,8.57
2023-02-02T16:34:57.177Z,8.68
2023-02-02T16:37:27.330Z,8.58
2023-02-02T16:39:58.318Z,8.27
2023-02-02T16:42:36.227Z,8.32
2023-02-02T16:45:04.038Z,8.05
2023-02-02T16:47:37.797Z,8.04
2023-02-02T16:50:26.077Z,7.84
2023-02-02T16:52:56.175Z,8.03
2023-02-02T16:55:29.711Z,8.01
2023-02-02T16:58:04.873Z,8.06
2023-02-02T17:00:33.436Z,8.12
2023-02-02T17:03:05.340Z,8.28
2023-02-02T17:05:37.282Z,8.18
2023-02-02T17:08:07.884Z,8.06
2023-02-02T17:10:38.683Z,8.34
2023-02-02T17:13:39.076Z,8.31
2023-02-02T17:16:06.968Z,8.36
2023-02-02T17:18:34.712Z,8.30
2023-02-02T17:21:07.878Z,8.28
2023-02-02T17:23:38.564Z,8.36
2023-02-02T17:26:09.840Z,8.38
2023-02-02T17:28:39.603Z,8.16
2023-02-02T17:31:10.169Z,8.33
2023-02-02T17:33:38.227Z,8.29
2023-02-02T17:36:06.726Z,8.41
2023-02-02T17:38:34.369Z,8.40
2023-02-02T17:41:04.101Z,8.35
2023-02-02T17:43:34.451Z,8.31
2023-02-02T17:46:04.120Z,8.24
2023-02-02T17:48:31.983Z,8.34
2023-02-02T17:50:59.751Z,8.27
2023-02-02T17:53:32.103Z,8.25
2023-02-02T17:56:01.018Z,8.18
2023-02-02T17:58:28.688Z,8.20
2023-02-02T18:00:58.971Z,8.16
2023-02-02T18:03:30.879Z,8.09
2023-02-02T18:06:01.476Z,8.14
2023-02-02T18:08:29.823Z,8.21
2023-02-02T18:10:57.752Z,8.19
2023-02-02T18:13:25.451Z,8.08
2023-02-02T18:15:54.998Z,8.05
2023-02-02T18:18:24.376Z,8.18
2023-02-02T18:20:52.360Z,8.10
2023-02-02T18:23:20.475Z,8.21
2023-02-02T18:25:48.308Z,8.35
2023-02-02T18:28:18.015Z,8.18
2023-02-02T18:30:46.460Z,8.10
2023-02-02T18:33:17.242Z,8.20
2023-02-02T18:35:47.952Z,8.00
2023-02-02T18:38:15.916Z,8.18
2023-02-02T18:40:43.665Z,8.12
2023-02-02T18:43:11.388Z,8.27
2023-02-02T18:45:39.042Z,8.21
2023-02-02T18:48:06.899Z,8.15
2023-02-02T18:50:34.614Z,7.97
2023-02-02T18:53:03.659Z,8.16
2023-02-02T18:55:32.317Z,8.21
2023-02-02T18:57:59.931Z,8.20
2023-02-02T19:00:27.651Z,8.19
2023-02-02T19:02:55.381Z,8.20
2023-02-02T19:05:40.580Z,8.21
2023-02-02T19:08:09.607Z,8.09
2023-02-02T19:10:37.361Z,8.08
2023-02-02T19:13:19.161Z,8.09
2023-02-02T19:15:48.357Z,8.17
2023-02-02T19:18:18.467Z,8.02
2023-02-02T19:20:47.346Z,7.98
2023-02-02T19:23:18.742Z,7.76
2023-02-02T19:25:51.266Z,8.00
2023-02-02T19:28:22.935Z,8.05
2023-02-02T19:30:52.237Z,7.89
2023-02-02T19:33:20.413Z,7.92
2023-02-02T19:35:52.956Z,7.90
2023-02-02T19:38:22.756Z,7.80
2023-02-02T19:40:50.422Z,7.87
2023-02-02T19:43:25.327Z,7.90
2023-02-02T19:45:53.877Z,7.93
2023-02-02T19:48:25.757Z,7.76
2023-02-02T19:50:54.775Z,7.70
2023-02-02T19:53:28.090Z,7.67
2023-02-02T19:55:55.784Z,7.70
2023-02-02T19:58:25.798Z,7.74
2023-02-02T20:00:55.654Z,7.70
2023-02-02T20:03:25.067Z,7.61
2023-02-02T20:05:54.509Z,7.58
2023-02-02T20:08:26.257Z,7.47
2023-02-02T20:10:55.451Z,7.49
2023-02-02T20:13:25.935Z,7.45
2023-02-02T20:16:03.611Z,7.52
2023-02-02T20:18:41.156Z,7.58
2023-02-02T20:21:18.396Z,7.56
2023-02-02T20:23:47.529Z,7.34
2023-02-02T20:26:23.772Z,7.37
2023-02-02T20:28:53.594Z,7.53
2023-02-02T20:31:23.218Z,7.34
2023-02-02T20:33:54.434Z,7.25
2023-02-02T20:36:35.325Z,7.31
2023-02-02T20:39:22.736Z,7.26
2023-02-02T20:41:50.717Z,7.26
2023-02-02T20:44:18.379Z,7.23
2023-02-02T20:46:46.062Z,7.37
2023-02-02T20:49:14.138Z,7.40
2023-02-02T20:51:41.816Z,7.26
2023-02-02T20:54:11.371Z,7.38
2023-02-02T20:56:39.281Z,7.37
2023-02-02T20:59:07.488Z,7.41
2023-02-02T21:01:35.277Z,7.31
2023-02-02T21:04:05.327Z,7.24
2023-02-02T21:06:33.031Z,7.28
2023-02-02T21:09:00.678Z,7.26
2023-02-02T21:11:29.757Z,7.28
2023-02-02T21:13:57.515Z,7.30
2023-02-02T21:16:25.920Z,7.34
2023-02-02T21:18:53.939Z,7.27
2023-02-02T21:21:22.536Z,7.15
2023-02-02T21:23:51.524Z,7.15
2023-02-02T21:26:22.132Z,7.17
2023-02-02T21:28:51.186Z,7.17
2023-02-02T21:31:19.152Z,7.12
2023-02-02T21:33:48.485Z,7.15
2023-02-02T21:36:29.907Z,6.88
2023-02-02T21:39:03.021Z,7.17
2023-02-02T21:41:33.074Z,7.13
2023-02-02T21:44:02.112Z,7.31
2023-02-02T21:46:36.455Z,7.43
2023-02-02T21:49:04.682Z,7.33
2023-02-02T21:51:35.755Z,7.30
2023-02-02T21:54:18.641Z,7.23
2023-02-02T21:56:46.353Z,7.13
2023-02-02T21:59:17.459Z,7.27
2023-02-02T22:01:47.023Z,7.30
2023-02-02T22:04:21.697Z,7.37
2023-02-02T22:06:51.475Z,7.23
2023-02-02T22:09:22.347Z,7.20
2023-02-02T22:11:53.059Z,7.39
2023-02-02T22:14:26.733Z,7.41
2023-02-02T22:16:58.480Z,7.52
2023-02-02T22:19:30.082Z,7.49
2023-02-02T22:22:11.884Z,7.49
2023-02-02T22:24:39.871Z,7.49
2023-02-02T22:27:18.195Z,7.44
2023-02-02T22:29:47.468Z,7.58
2023-02-02T22:32:15.194Z,7.67
2023-02-02T22:34:42.894Z,7.70
2023-02-02T22:37:10.522Z,7.63
2023-02-02T22:39:42.624Z,7.76
2023-02-02T22:42:10.836Z,7.62
2023-02-02T22:44:38.515Z,7.65
2023-02-02T22:47:07.500Z,7.49
2023-02-02T22:49:35.187Z,7.59
2023-02-02T22:52:02.838Z,7.66
2023-02-02T22:54:30.973Z,7.72
2023-02-02T22:56:58.603Z,7.61
2023-02-02T22:59:26.288Z,7.58
2023-02-02T23:01:53.889Z,7.48
2023-02-02T23:04:22.866Z,7.61
2023-02-02T23:06:50.540Z,7.62
2023-02-02T23:09:18.277Z,7.63
2023-02-02T23:11:48.040Z,7.61
2023-02-02T23:14:16.792Z,7.53
2023-02-02T23:16:44.605Z,7.56
2023-02-02T23:19:12.234Z,7.59
2023-02-02T23:21:41.233Z,7.70
2023-02-02T23:24:09.595Z,7.56
2023-02-02T23:26:37.374Z,7.62
2023-02-02T23:29:05.097Z,7.62
2023-02-02T23:31:32.916Z,7.56
2023-02-02T23:34:00.756Z,7.60
2023-02-02T23:36:28.428Z,7.55
2023-02-02T23:38:57.432Z,7.60
2023-02-02T23:41:25.164Z,7.65
2023-02-02T23:43:53.078Z,7.58
2023-02-02T23:46:21.006Z,7.60
2023-02-02T23:48:48.798Z,7.65
2023-02-02T23:51:16.522Z,7.66
2023-02-02T23:53:44.843Z,7.74
2023-02-02T23:56:13.808Z,7.67
2023-02-02T23:58:41.430Z,7.67
